Time,TemperatureF,DewpointF,PressureIn,WindDirection,WindDirectionDegrees,WindSpeedMPH,WindSpeedGustMPH,Humidity,HourlyPrecipIn,Conditions,Clouds,dailyrainin,SoftwareType,DateUTC
2013-07-15 00:06:00,77.8,71.7,29.84,East,101,1.1,6.0,81,0.00,,,0.00,WUHU216DAVISVP2,2013-07-15 05:06:00,
2013-07-15 00:36:00,77.5,72.1,29.83,East,95,2.2,5.5,83,0.00,,,0.00,WUHU216DAVISVP2,2013-07-15 05:36:00,
2013-07-15 01:06:00,77.5,72.4,29.84,ESE,107,0.0,5.0,84,0.00,,,0.00,WUHU216DAVISVP2,2013-07-15 06:06:00,
2013-07-15 01:36:00,77.3,72.6,29.83,SSE,153,2.2,5.5,85,0.00,,,0.00,WUHU216DAVISVP2,2013-07-15 06:36:00,
2013-07-15 02:06:00,77.5,73.1,29.84,SE,135,0.0,1.1,86,0.00,,,0.00,WUHU216DAVISVP2,2013-07-15 07:06:00,
2013-07-15 02:36:00,77.7,73.3,29.82,SE,128,1.1,4.4,86,0.00,,,0.00,WUHU216DAVISVP2,2013-07-15 07:36:00,
2013-07-15 03:06:00,77.7,73.3,29.83,ESE,120,0.0,2.2,86,0.00,,,0.00,WUHU216DAVISVP2,2013-07-15 08:06:00,
2013-07-15 03:36:00,77.5,73.4,29.83,ESE,108,1.1,3.3,87,0.00,,,0.00,WUHU216DAVISVP2,2013-07-15 08:36:00,
2013-07-15 04:06:00,77.5,73.4,29.84,SE,143,2.2,5.5,87,0.00,,,0.00,WUHU216DAVISVP2,2013-07-15 09:06:00,
2013-07-15 04:36:00,77.0,73.3,29.83,SE,135,2.2,6.0,88,0.00,,,0.00,WUHU216DAVISVP2,2013-07-15 09:36:00,
2013-07-15 05:06:00,76.6,73.5,29.84,ESE,104,0.0,4.0,90,0.00,,,0.00,WUHU216DAVISVP2,2013-07-15 10:06:00,
2013-07-15 05:36:00,76.0,73.3,29.84,ESE,104,1.1,3.0,91,0.00,,,0.00,WUHU216DAVISVP2,2013-07-15 10:36:00,
2013-07-15 06:06:00,75.8,73.4,29.85,ESE,104,0.0,1.1,92,0.00,,,0.00,WUHU216DAVISVP2,2013-07-15 11:06:00,
2013-07-15 06:36:00,75.5,73.1,29.85,East,98,1.1,3.3,92,0.00,,,0.00,WUHU216DAVISVP2,2013-07-15 11:36:00,
2013-07-15 07:06:00,75.3,72.9,29.85,East,99,2.2,5.0,92,0.00,,,0.00,WUHU216DAVISVP2,2013-07-15 12:06:00,
2013-07-15 07:36:00,75.4,72.7,29.86,East,97,1.1,6.0,91,0.00,,,0.00,WUHU216DAVISVP2,2013-07-15 12:36:00,
2013-07-15 08:06:00,75.8,73.1,29.86,East,95,1.1,5.5,91,0.00,,,0.00,WUHU216DAVISVP2,2013-07-15 13:06:00,
2013-07-15 08:36:00,75.8,72.7,29.88,East,96,2.2,5.0,90,0.00,,,0.00,WUHU216DAVISVP2,2013-07-15 13:36:00,
2013-07-15 09:06:00,76.7,73.3,29.88,ESE,106,0.0,4.4,89,0.00,,,0.00,WUHU216DAVISVP2,2013-07-15 14:06:00,
2013-07-15 09:36:00,78.5,73.8,29.89,ESE,116,2.2,5.5,85,0.00,,,0.00,WUHU216DAVISVP2,2013-07-15 14:36:00,
2013-07-15 10:06:00,79.8,74.0,29.89,SSE,149,2.2,8.8,82,0.00,,,0.00,WUHU216DAVISVP2,2013-07-15 15:06:00,
2013-07-15 10:36:00,80.7,74.2,29.90,ESE,114,4.4,13.0,80,0.00,,,0.00,WUHU216DAVISVP2,2013-07-15 15:36:00,
2013-07-15 11:06:00,81.8,73.8,29.90,SSE,160,6.6,11.0,76,0.00,,,0.00,WUHU216DAVISVP2,2013-07-15 16:06:00,
2013-07-15 11:36:00,82.0,73.2,29.91,ESE,115,3.3,11.0,74,0.00,,,0.00,WUHU216DAVISVP2,2013-07-15 16:36:00,
2013-07-15 12:06:00,83.8,73.3,29.91,SE,144,3.3,9.0,70,0.00,,,0.00,WUHU216DAVISVP2,2013-07-15 17:06:00,
2013-07-15 12:36:00,84.4,73.1,29.91,SE,142,4.4,11.0,68,0.00,,,0.00,WUHU216DAVISVP2,2013-07-15 17:36:00,
2013-07-15 13:07:00,86.4,72.7,29.90,ESE,120,2.2,8.0,63,0.00,,,0.00,WUHU216DAVISVP2,2013-07-15 18:07:00,
2013-07-15 13:37:00,86.4,73.2,29.90,SE,131,1.1,8.0,64,0.00,,,0.00,WUHU216DAVISVP2,2013-07-15 18:37:00,
2013-07-15 14:07:00,87.7,73.0,29.89,East,98,1.1,7.0,61,0.00,,,0.00,WUHU216DAVISVP2,2013-07-15 19:07:00,
2013-07-15 14:37:00,87.5,72.3,29.88,ESE,119,2.2,8.8,60,0.00,,,0.00,WUHU216DAVISVP2,2013-07-15 19:37:00,
2013-07-15 15:07:00,86.8,72.2,29.87,NE,55,4.4,5.5,61,0.00,,,0.00,WUHU216DAVISVP2,2013-07-15 20:07:00,
2013-07-15 15:37:00,72.3,69.0,29.92,SSE,157,4.4,20.0,89,0.07,,,0.07,WUHU216DAVISVP2,2013-07-15 20:37:00,
2013-07-15 16:07:00,72.1,70.3,29.89,NNE,22,4.4,7.7,94,0.21,,,0.21,WUHU216DAVISVP2,2013-07-15 21:07:00,
2013-07-15 16:37:00,72.1,70.3,29.91,NNW,341,4.4,11.0,94,0.24,,,0.31,WUHU216DAVISVP2,2013-07-15 21:37:00,
2013-07-15 17:07:00,72.3,70.5,29.90,NNW,341,6.6,9.9,94,0.16,,,0.37,WUHU216DAVISVP2,2013-07-15 22:07:00,
2013-07-15 17:37:00,72.4,70.6,29.90,North,355,2.2,7.0,94,0.13,,,0.44,WUHU216DAVISVP2,2013-07-15 22:37:00,
2013-07-15 18:07:00,72.5,70.7,29.91,NE,44,1.1,9.0,94,0.11,,,0.48,WUHU216DAVISVP2,2013-07-15 23:07:00,
2013-07-15 18:37:00,72.1,70.3,29.89,NNE,27,3.3,11.0,94,0.08,,,0.52,WUHU216DAVISVP2,2013-07-15 23:37:00,
2013-07-15 19:07:00,72.4,70.9,29.89,NNE,21,5.5,9.0,95,0.06,,,0.54,WUHU216DAVISVP2,2013-07-16 00:07:00,
2013-07-15 19:37:00,72.4,70.6,29.89,NE,42,2.2,9.9,94,0.04,,,0.56,WUHU216DAVISVP2,2013-07-16 00:37:00,
2013-07-15 20:07:00,72.6,71.1,29.91,NE,37,1.1,7.0,95,0.03,,,0.57,WUHU216DAVISVP2,2013-07-16 01:07:00,
2013-07-15 20:37:00,72.5,70.7,29.92,NE,56,1.1,4.4,94,0.02,,,0.58,WUHU216DAVISVP2,2013-07-16 01:37:00,
2013-07-15 21:07:00,72.0,70.2,29.94,NE,47,1.1,4.0,94,0.01,,,0.58,WUHU216DAVISVP2,2013-07-16 02:07:00,
2013-07-15 21:37:00,71.9,70.5,29.93,NE,56,2.2,4.4,95,0.00,,,0.58,WUHU216DAVISVP2,2013-07-16 02:37:00,
2013-07-15 22:08:00,72.1,70.7,29.94,NE,49,1.1,5.0,95,0.01,,,0.59,WUHU216DAVISVP2,2013-07-16 03:08:00,
2013-07-15 22:38:00,72.2,70.8,29.96,NE,49,0.0,3.3,95,0.01,,,0.59,WUHU216DAVISVP2,2013-07-16 03:38:00,
2013-07-15 23:08:00,72.6,71.1,29.96,NE,56,0.0,5.0,95,0.00,,,0.59,WUHU216DAVISVP2,2013-07-16 04:08:00,
2013-07-15 23:38:00,72.8,71.3,29.96,NE,41,1.1,3.3,95,0.00,,,0.59,WUHU216DAVISVP2,2013-07-16 04:38:00,